sensor_id;sensor_type;location;lat;lon;timestamp;pressure;altitude;pressure_sealevel;temperature;humidity
61026;BME280;46911;32.650;-16.902;2023-11-19T00:00:28;102020.75;;;19.79;66.51
61026;BME280;46911;32.650;-16.902;2023-11-19T00:02:31;102017.06;;;19.80;66.37
61026;BME280;46911;32.650;-16.902;2023-11-19T00:04:32;102017.81;;;19.82;66.45
61026;BME280;46911;32.650;-16.902;2023-11-19T00:06:33;102013.63;;;19.78;66.12
61026;BME280;46911;32.650;-16.902;2023-11-19T00:08:37;102019.88;;;19.79;66.70
61026;BME280;46911;32.650;-16.902;2023-11-19T00:10:38;102010.06;;;19.78;66.27
61026;BME280;46911;32.650;-16.902;2023-11-19T00:12:43;102004.66;;;19.78;66.69
61026;BME280;46911;32.650;-16.902;2023-11-19T00:14:45;102003.06;;;19.75;66.43
61026;BME280;46911;32.650;-16.902;2023-11-19T00:16:56;102009.03;;;19.79;66.39
61026;BME280;46911;32.650;-16.902;2023-11-19T00:19:00;102005.63;;;19.77;66.26
61026;BME280;46911;32.650;-16.902;2023-11-19T00:21:03;102003.63;;;19.79;66.11
61026;BME280;46911;32.650;-16.902;2023-11-19T00:23:04;101995.31;;;19.70;66.39
61026;BME280;46911;32.650;-16.902;2023-11-19T00:25:09;102001.47;;;19.72;66.03
61026;BME280;46911;32.650;-16.902;2023-11-19T00:27:10;101992.63;;;19.70;66.01
61026;BME280;46911;32.650;-16.902;2023-11-19T00:29:12;101998.78;;;19.72;65.81
61026;BME280;46911;32.650;-16.902;2023-11-19T00:31:17;101995.47;;;19.69;66.33
61026;BME280;46911;32.650;-16.902;2023-11-19T00:33:19;101982.22;;;19.66;65.93
61026;BME280;46911;32.650;-16.902;2023-11-19T00:35:22;101998.03;;;19.70;65.87
61026;BME280;46911;32.650;-16.902;2023-11-19T00:37:26;102000.75;;;19.70;66.24
61026;BME280;46911;32.650;-16.902;2023-11-19T00:39:27;101992.47;;;19.72;65.96
61026;BME280;46911;32.650;-16.902;2023-11-19T00:41:28;101984.25;;;19.73;66.05
61026;BME280;46911;32.650;-16.902;2023-11-19T00:43:31;101970.81;;;19.72;66.44
61026;BME280;46911;32.650;-16.902;2023-11-19T00:45:32;101973.41;;;19.73;66.22
61026;BME280;46911;32.650;-16.902;2023-11-19T00:47:33;101967.13;;;19.73;66.03
61026;BME280;46911;32.650;-16.902;2023-11-19T00:49:34;101959.44;;;19.68;66.21
61026;BME280;46911;32.650;-16.902;2023-11-19T00:51:37;101966.84;;;19.76;66.02
61026;BME280;46911;32.650;-16.902;2023-11-19T00:53:38;101964.63;;;19.81;65.92
61026;BME280;46911;32.650;-16.902;2023-11-19T00:55:39;101968.56;;;19.77;65.95
61026;BME280;46911;32.650;-16.902;2023-11-19T00:57:40;101964.75;;;19.80;65.94
61026;BME280;46911;32.650;-16.902;2023-11-19T00:59:43;101959.31;;;19.80;65.66
61026;BME280;46911;32.650;-16.902;2023-11-19T01:01:44;101962.03;;;19.80;65.92
61026;BME280;46911;32.650;-16.902;2023-11-19T01:03:47;101954.06;;;19.78;65.57
61026;BME280;46911;32.650;-16.902;2023-11-19T01:05:52;101957.75;;;19.77;65.70
61026;BME280;46911;32.650;-16.902;2023-11-19T01:07:53;101942.75;;;19.73;65.67
61026;BME280;46911;32.650;-16.902;2023-11-19T01:09:54;101954.06;;;19.78;65.98
61026;BME280;46911;32.650;-16.902;2023-11-19T01:11:55;101954.19;;;19.77;65.85
61026;BME280;46911;32.650;-16.902;2023-11-19T01:13:56;101952.47;;;19.76;65.96
61026;BME280;46911;32.650;-16.902;2023-11-19T01:15:57;101945.34;;;19.74;66.12
61026;BME280;46911;32.650;-16.902;2023-11-19T01:18:05;101930.78;;;19.66;66.13
61026;BME280;46911;32.650;-16.902;2023-11-19T01:20:08;101942.63;;;19.74;66.11
61026;BME280;46911;32.650;-16.902;2023-11-19T01:22:12;101939.91;;;19.74;66.23
61026;BME280;46911;32.650;-16.902;2023-11-19T01:24:16;101932.34;;;19.68;66.59
61026;BME280;46911;32.650;-16.902;2023-11-19T01:26:19;101927.50;;;19.72;66.25
61026;BME280;46911;32.650;-16.902;2023-11-19T01:28:23;101925.22;;;19.67;66.30
61026;BME280;46911;32.650;-16.902;2023-11-19T01:30:27;101915.50;;;19.65;66.42
61026;BME280;46911;32.650;-16.902;2023-11-19T01:32:30;101931.09;;;19.72;66.78
61026;BME280;46911;32.650;-16.902;2023-11-19T01:34:31;101927.41;;;19.73;66.27
61026;BME280;46911;32.650;-16.902;2023-11-19T01:36:32;101910.69;;;19.68;66.47
61026;BME280;46911;32.650;-16.902;2023-11-19T01:38:34;101916.13;;;19.68;66.56
61026;BME280;46911;32.650;-16.902;2023-11-19T01:40:35;101921.63;;;19.67;66.25
61026;BME280;46911;32.650;-16.902;2023-11-19T01:42:39;101916.38;;;19.65;66.16
61026;BME280;46911;32.650;-16.902;2023-11-19T01:44:41;101923.13;;;19.71;66.12
61026;BME280;46911;32.650;-16.902;2023-11-19T01:46:44;101926.38;;;19.74;65.85
61026;BME280;46911;32.650;-16.902;2023-11-19T01:48:46;101921.84;;;19.75;65.76
61026;BME280;46911;32.650;-16.902;2023-11-19T01:50:47;101924.41;;;19.77;65.87
61026;BME280;46911;32.650;-16.902;2023-11-19T01:52:51;101926.25;;;19.76;65.63
61026;BME280;46911;32.650;-16.902;2023-11-19T01:54:56;101917.00;;;19.79;65.76
61026;BME280;46911;32.650;-16.902;2023-11-19T01:56:57;101913.25;;;19.70;65.50
61026;BME280;46911;32.650;-16.902;2023-11-19T01:58:58;101925.25;;;19.77;65.41
61026;BME280;46911;32.650;-16.902;2023-11-19T02:01:02;101914.56;;;19.76;65.62
61026;BME280;46911;32.650;-16.902;2023-11-19T02:03:06;101907.88;;;19.80;65.52
61026;BME280;46911;32.650;-16.902;2023-11-19T02:05:14;101913.31;;;19.80;64.98
61026;BME280;46911;32.650;-16.902;2023-11-19T02:07:15;101902.16;;;19.73;65.09
61026;BME280;46911;32.650;-16.902;2023-11-19T02:09:21;101911.59;;;19.79;65.39
61026;BME280;46911;32.650;-16.902;2023-11-19T02:11:28;101908.03;;;19.78;64.87
61026;BME280;46911;32.650;-16.902;2023-11-19T02:13:33;101907.28;;;19.76;65.22
61026;BME280;46911;32.650;-16.902;2023-11-19T02:15:40;101901.03;;;19.76;64.94
61026;BME280;46911;32.650;-16.902;2023-11-19T02:17:41;101900.19;;;19.75;65.11
61026;BME280;46911;32.650;-16.902;2023-11-19T02:19:42;101896.75;;;19.73;64.67
61026;BME280;46911;32.650;-16.902;2023-11-19T02:21:45;101896.75;;;19.73;65.20
61026;BME280;46911;32.650;-16.902;2023-11-19T02:23:46;101897.19;;;19.78;64.91
61026;BME280;46911;32.650;-16.902;2023-11-19T02:28:17;101885.22;;;19.71;65.02
61026;BME280;46911;32.650;-16.902;2023-11-19T02:30:18;101882.09;;;19.76;65.02
61026;BME280;46911;32.650;-16.902;2023-11-19T02:32:19;101886.78;;;19.73;65.00
61026;BME280;46911;32.650;-16.902;2023-11-19T02:34:21;101883.06;;;19.74;64.76
61026;BME280;46911;32.650;-16.902;2023-11-19T02:36:24;101883.94;;;19.75;64.69
61026;BME280;46911;32.650;-16.902;2023-11-19T02:38:25;101870.94;;;19.69;64.70
61026;BME280;46911;32.650;-16.902;2023-11-19T02:40:26;101877.94;;;19.71;64.98
61026;BME280;46911;32.650;-16.902;2023-11-19T02:42:32;101874.06;;;19.64;64.98
61026;BME280;46911;32.650;-16.902;2023-11-19T02:44:35;101871.38;;;19.64;64.96
61026;BME280;46911;32.650;-16.902;2023-11-19T02:46:36;101873.78;;;19.67;65.10
61026;BME280;46911;32.650;-16.902;2023-11-19T02:48:37;101880.19;;;19.66;64.97
61026;BME280;46911;32.650;-16.902;2023-11-19T02:50:40;101867.50;;;19.67;64.86
61026;BME280;46911;32.650;-16.902;2023-11-19T02:52:44;101873.94;;;19.66;64.72
61026;BME280;46911;32.650;-16.902;2023-11-19T02:54:46;101870.34;;;19.65;64.62
61026;BME280;46911;32.650;-16.902;2023-11-19T02:56:47;101860.47;;;19.54;64.71
61026;BME280;46911;32.650;-16.902;2023-11-19T02:58:55;101857.06;;;19.52;64.97
61026;BME280;46911;32.650;-16.902;2023-11-19T03:00:56;101858.09;;;19.61;64.74
61026;BME280;46911;32.650;-16.902;2023-11-19T03:03:00;101856.34;;;19.60;64.76
61026;BME280;46911;32.650;-16.902;2023-11-19T03:05:11;101849.34;;;19.48;64.68
61026;BME280;46911;32.650;-16.902;2023-11-19T03:07:15;101844.59;;;19.40;64.83
61026;BME280;46911;32.650;-16.902;2023-11-19T03:09:19;101859.28;;;19.37;65.60
61026;BME280;46911;32.650;-16.902;2023-11-19T03:11:20;101857.94;;;19.32;65.90
61026;BME280;46911;32.650;-16.902;2023-11-19T03:13:21;101845.94;;;19.24;65.56
61026;BME280;46911;32.650;-16.902;2023-11-19T03:15:22;101851.03;;;19.18;65.86
61026;BME280;46911;32.650;-16.902;2023-11-19T03:17:23;101846.16;;;19.12;66.24
61026;BME280;46911;32.650;-16.902;2023-11-19T03:19:24;101845.44;;;19.10;65.89
61026;BME280;46911;32.650;-16.902;2023-11-19T03:21:32;101830.00;;;19.00;65.96
61026;BME280;46911;32.650;-16.902;2023-11-19T03:23:32;101829.81;;;18.92;65.86
61026;BME280;46911;32.650;-16.902;2023-11-19T03:25:33;101831.13;;;18.98;65.75
61026;BME280;46911;32.650;-16.902;2023-11-19T03:27:38;101842.94;;;18.97;65.98
61026;BME280;46911;32.650;-16.902;2023-11-19T03:29:42;101836.78;;;18.95;66.01
61026;BME280;46911;32.650;-16.902;2023-11-19T03:31:45;101836.53;;;18.98;65.78
61026;BME280;46911;32.650;-16.902;2023-11-19T03:33:46;101829.06;;;18.90;65.62
61026;BME280;46911;32.650;-16.902;2023-11-19T03:35:49;101835.22;;;18.92;65.51
61026;BME280;46911;32.650;-16.902;2023-11-19T03:37:52;101838.13;;;19.00;64.93
61026;BME280;46911;32.650;-16.902;2023-11-19T03:39:54;101828.22;;;18.89;64.79
61026;BME280;46911;32.650;-16.902;2023-11-19T03:42:00;101810.44;;;18.76;64.72
61026;BME280;46911;32.650;-16.902;2023-11-19T03:44:01;101842.78;;;18.98;64.63
61026;BME280;46911;32.650;-16.902;2023-11-19T03:46:02;101819.09;;;18.90;64.66
61026;BME280;46911;32.650;-16.902;2023-11-19T03:48:07;101821.22;;;18.87;64.47
61026;BME280;46911;32.650;-16.902;2023-11-19T03:50:08;101830.53;;;18.94;64.76
61026;BME280;46911;32.650;-16.902;2023-11-19T03:52:09;101831.78;;;18.90;64.83
61026;BME280;46911;32.650;-16.902;2023-11-19T03:54:10;101835.31;;;18.90;64.94
61026;BME280;46911;32.650;-16.902;2023-11-19T03:56:14;101836.06;;;18.93;64.45
61026;BME280;46911;32.650;-16.902;2023-11-19T03:58:17;101819.09;;;18.90;64.37
61026;BME280;46911;32.650;-16.902;2023-11-19T04:00:18;101826.69;;;18.97;64.64
61026;BME280;46911;32.650;-16.902;2023-11-19T04:02:21;101834.69;;;18.98;64.55
61026;BME280;46911;32.650;-16.902;2023-11-19T04:04:25;101818.50;;;18.87;64.53
61026;BME280;46911;32.650;-16.902;2023-11-19T04:06:28;101827.13;;;18.92;64.40
61026;BME280;46911;32.650;-16.902;2023-11-19T04:08:29;101827.13;;;18.92;64.77
61026;BME280;46911;32.650;-16.902;2023-11-19T04:10:33;101824.41;;;18.92;64.65
61026;BME280;46911;32.650;-16.902;2023-11-19T04:12:35;101821.81;;;18.90;64.96
61026;BME280;46911;32.650;-16.902;2023-11-19T04:14:36;101825.41;;;18.91;65.30
61026;BME280;46911;32.650;-16.902;2023-11-19T04:16:39;101822.56;;;18.93;65.46
61026;BME280;46911;32.650;-16.902;2023-11-19T04:18:45;101826.09;;;18.93;65.34
61026;BME280;46911;32.650;-16.902;2023-11-19T04:20:48;101828.66;;;18.95;65.81
61026;BME280;46911;32.650;-16.902;2023-11-19T04:22:50;101824.00;;;18.97;65.92
61026;BME280;46911;32.650;-16.902;2023-11-19T04:24:54;101817.59;;;18.98;65.89
61026;BME280;46911;32.650;-16.902;2023-11-19T04:26:57;101821.03;;;19.00;65.78
61026;BME280;46911;32.650;-16.902;2023-11-19T04:29:01;101814.75;;;18.99;66.32
61026;BME280;46911;32.650;-16.902;2023-11-19T04:31:02;101821.25;;;19.08;66.19
61026;BME280;46911;32.650;-16.902;2023-11-19T04:33:06;101824.78;;;19.09;66.01
61026;BME280;46911;32.650;-16.902;2023-11-19T04:35:07;101819.38;;;19.09;66.23
61026;BME280;46911;32.650;-16.902;2023-11-19T04:37:09;101821.66;;;19.13;65.74
61026;BME280;46911;32.650;-16.902;2023-11-19T04:39:10;101826.97;;;19.15;65.55
61026;BME280;46911;32.650;-16.902;2023-11-19T04:41:18;101813.84;;;19.10;65.63
61026;BME280;46911;32.650;-16.902;2023-11-19T04:43:21;101808.44;;;19.10;65.61
61026;BME280;46911;32.650;-16.902;2023-11-19T04:45:25;101824.00;;;19.18;65.36
61026;BME280;46911;32.650;-16.902;2023-11-19T04:47:26;101818.97;;;19.13;65.73
61026;BME280;46911;32.650;-16.902;2023-11-19T04:49:26;101812.09;;;19.09;65.73
61026;BME280;46911;32.650;-16.902;2023-11-19T04:51:27;101816.84;;;19.17;65.70
61026;BME280;46911;32.650;-16.902;2023-11-19T04:53:31;101820.03;;;19.22;65.80
61026;BME280;46911;32.650;-16.902;2023-11-19T04:55:34;101789.03;;;19.05;65.38
61026;BME280;46911;32.650;-16.902;2023-11-19T04:57:35;101808.59;;;19.18;65.72
61026;BME280;46911;32.650;-16.902;2023-11-19T04:59:36;101812.28;;;19.17;65.85
61026;BME280;46911;32.650;-16.902;2023-11-19T05:01:37;101812.28;;;19.17;66.09
61026;BME280;46911;32.650;-16.902;2023-11-19T05:03:39;101812.88;;;19.21;66.37
61026;BME280;46911;32.650;-16.902;2023-11-19T05:05:41;101804.19;;;19.17;66.19
61026;BME280;46911;32.650;-16.902;2023-11-19T05:07:49;101810.38;;;19.29;65.82
61026;BME280;46911;32.650;-16.902;2023-11-19T05:09:52;101805.09;;;19.28;65.62
61026;BME280;46911;32.650;-16.902;2023-11-19T05:11:53;101813.06;;;19.29;65.61
61026;BME280;46911;32.650;-16.902;2023-11-19T05:13:58;101801.53;;;19.27;65.49
61026;BME280;46911;32.650;-16.902;2023-11-19T05:15:59;101797.06;;;19.16;65.78
61026;BME280;46911;32.650;-16.902;2023-11-19T05:18:00;101798.91;;;19.16;66.00
61026;BME280;46911;32.650;-16.902;2023-11-19T05:20:01;101793.03;;;19.11;66.02
61026;BME280;46911;32.650;-16.902;2023-11-19T05:22:04;101786.41;;;19.15;65.82
61026;BME280;46911;32.650;-16.902;2023-11-19T05:24:08;101800.03;;;19.13;66.10
61026;BME280;46911;32.650;-16.902;2023-11-19T05:26:09;101797.06;;;19.16;66.17
61026;BME280;46911;32.650;-16.902;2023-11-19T05:28:13;101789.63;;;19.09;66.23
61026;BME280;46911;32.650;-16.902;2023-11-19T05:30:16;101797.94;;;19.17;66.48
61026;BME280;46911;32.650;-16.902;2023-11-19T05:32:17;101802.50;;;19.16;66.47
61026;BME280;46911;32.650;-16.902;2023-11-19T05:34:18;101795.75;;;19.11;66.54
61026;BME280;46911;32.650;-16.902;2023-11-19T05:36:21;101789.63;;;19.09;66.58
61026;BME280;46911;32.650;-16.902;2023-11-19T05:38:24;101789.03;;;19.05;66.69
61026;BME280;46911;32.650;-16.902;2023-11-19T05:40:25;101791.56;;;18.97;66.89
61026;BME280;46911;32.650;-16.902;2023-11-19T05:42:30;101795.50;;;18.93;67.33
61026;BME280;46911;32.650;-16.902;2023-11-19T05:44:33;101783.13;;;18.90;67.47
61026;BME280;46911;32.650;-16.902;2023-11-19T05:46:36;101793.16;;;18.88;67.42
61026;BME280;46911;32.650;-16.902;2023-11-19T05:48:44;101793.44;;;18.85;67.59
61026;BME280;46911;32.650;-16.902;2023-11-19T05:50:49;101788.66;;;18.88;67.41
61026;BME280;46911;32.650;-16.902;2023-11-19T05:52:53;101784.19;;;18.87;66.82
61026;BME280;46911;32.650;-16.902;2023-11-19T05:54:54;101794.66;;;18.92;66.98
61026;BME280;46911;32.650;-16.902;2023-11-19T05:56:55;101783.16;;;18.79;67.22
61026;BME280;46911;32.650;-16.902;2023-11-19T05:58:56;101797.72;;;18.87;67.64
61026;BME280;46911;32.650;-16.902;2023-11-19T06:00:57;101783.56;;;18.74;67.67
61026;BME280;46911;32.650;-16.902;2023-11-19T06:03:01;101790.13;;;18.81;67.68
61026;BME280;46911;32.650;-16.902;2023-11-19T06:05:02;101800.84;;;18.83;67.58
61026;BME280;46911;32.650;-16.902;2023-11-19T06:07:03;101786.72;;;18.79;68.14
61026;BME280;46911;32.650;-16.902;2023-11-19T06:09:08;101800.94;;;18.81;67.83
61026;BME280;46911;32.650;-16.902;2023-11-19T06:11:10;101794.56;;;18.82;67.76
61026;BME280;46911;32.650;-16.902;2023-11-19T06:13:15;101795.44;;;18.83;67.79
61026;BME280;46911;32.650;-16.902;2023-11-19T06:15:16;101794.81;;;18.79;68.02
61026;BME280;46911;32.650;-16.902;2023-11-19T06:17:22;101789.59;;;18.66;68.13
61026;BME280;46911;32.650;-16.902;2023-11-19T06:19:23;101788.34;;;18.70;68.52
61026;BME280;46911;32.650;-16.902;2023-11-19T06:21:26;101759.06;;;18.54;68.46
61026;BME280;46911;32.650;-16.902;2023-11-19T06:23:27;101773.19;;;18.58;68.56
61026;BME280;46911;32.650;-16.902;2023-11-19T06:25:28;101762.66;;;18.55;68.76
61026;BME280;46911;32.650;-16.902;2023-11-19T06:27:31;101775.19;;;18.56;68.53
61026;BME280;46911;32.650;-16.902;2023-11-19T06:29:34;101763.56;;;18.44;69.03
61026;BME280;46911;32.650;-16.902;2023-11-19T06:31:35;101760.53;;;18.37;69.53
61026;BME280;46911;32.650;-16.902;2023-11-19T06:33:37;101779.59;;;18.36;69.64
61026;BME280;46911;32.650;-16.902;2023-11-19T06:35:38;101767.22;;;18.22;70.16
61026;BME280;46911;32.650;-16.902;2023-11-19T06:37:41;101773.25;;;18.14;70.28
61026;BME280;46911;32.650;-16.902;2023-11-19T06:39:44;101765.06;;;18.04;70.83
61026;BME280;46911;32.650;-16.902;2023-11-19T06:41:48;101775.75;;;18.06;71.19
61026;BME280;46911;32.650;-16.902;2023-11-19T06:43:49;101764.13;;;17.94;71.55
61026;BME280;46911;32.650;-16.902;2023-11-19T06:45:53;101767.78;;;17.93;71.53
61026;BME280;46911;32.650;-16.902;2023-11-19T06:48:03;101774.06;;;17.94;71.75
61026;BME280;46911;32.650;-16.902;2023-11-19T06:50:06;101771.47;;;17.81;72.17
61026;BME280;46911;32.650;-16.902;2023-11-19T06:52:10;101781.16;;;17.83;72.44
61026;BME280;46911;32.650;-16.902;2023-11-19T06:54:11;101781.78;;;17.76;72.88
61026;BME280;46911;32.650;-16.902;2023-11-19T06:56:24;101782.44;;;17.68;73.58
61026;BME280;46911;32.650;-16.902;2023-11-19T06:58:25;101764.16;;;17.60;73.82
61026;BME280;46911;32.650;-16.902;2023-11-19T07:00:25;101773.25;;;17.59;74.18
61026;BME280;46911;32.650;-16.902;2023-11-19T07:02:27;101776.53;;;17.51;74.45
61026;BME280;46911;32.650;-16.902;2023-11-19T07:04:28;101775.22;;;17.46;74.58
61026;BME280;46911;32.650;-16.902;2023-11-19T07:06:29;101788.56;;;17.47;74.60
61026;BME280;46911;32.650;-16.902;2023-11-19T07:08:30;101778.38;;;17.39;74.54
61026;BME280;46911;32.650;-16.902;2023-11-19T07:10:31;101788.72;;;17.34;74.95
61026;BME280;46911;32.650;-16.902;2023-11-19T07:12:32;101790.28;;;17.26;74.92
61026;BME280;46911;32.650;-16.902;2023-11-19T07:14:35;101788.56;;;17.24;75.28
61026;BME280;46911;32.650;-16.902;2023-11-19T07:16:36;101773.00;;;17.17;75.44
61026;BME280;46911;32.650;-16.902;2023-11-19T07:18:40;101769.81;;;17.12;75.46
61026;BME280;46911;32.650;-16.902;2023-11-19T07:20:47;101784.03;;;17.14;75.75
61026;BME280;46911;32.650;-16.902;2023-11-19T07:22:52;101773.97;;;17.04;75.98
61026;BME280;46911;32.650;-16.902;2023-11-19T07:24:55;101789.03;;;17.07;76.02
61026;BME280;46911;32.650;-16.902;2023-11-19T07:26:56;101789.63;;;16.99;76.46
61026;BME280;46911;32.650;-16.902;2023-11-19T07:28:59;101776.66;;;16.93;76.77
61026;BME280;46911;32.650;-16.902;2023-11-19T07:31:01;101779.34;;;16.93;76.81
61026;BME280;46911;32.650;-16.902;2023-11-19T07:33:02;101783.25;;;16.89;77.13
61026;BME280;46911;32.650;-16.902;2023-11-19T07:35:11;101793.13;;;16.88;77.13
61026;BME280;46911;32.650;-16.902;2023-11-19T07:37:14;101795.00;;;16.88;77.07
61026;BME280;46911;32.650;-16.902;2023-11-19T07:39:17;101798.66;;;16.87;77.16
61026;BME280;46911;32.650;-16.902;2023-11-19T07:41:18;101787.50;;;16.80;77.26
61026;BME280;46911;32.650;-16.902;2023-11-19T07:43:20;101801.34;;;16.87;77.25
61026;BME280;46911;32.650;-16.902;2023-11-19T07:45:21;101809.56;;;16.85;77.42
61026;BME280;46911;32.650;-16.902;2023-11-19T07:47:24;101818.28;;;16.89;77.31
61026;BME280;46911;32.650;-16.902;2023-11-19T07:49:27;101810.94;;;16.91;77.00
61026;BME280;46911;32.650;-16.902;2023-11-19T07:51:28;101819.16;;;17.01;76.94
61026;BME280;46911;32.650;-16.902;2023-11-19T07:53:29;101827.88;;;17.04;76.57
61026;BME280;46911;32.650;-16.902;2023-11-19T07:55:33;101825.94;;;17.06;76.44
61026;BME280;46911;32.650;-16.902;2023-11-19T07:57:37;101825.81;;;17.08;76.32
61026;BME280;46911;32.650;-16.902;2023-11-19T07:59:38;101825.81;;;17.08;76.41
61026;BME280;46911;32.650;-16.902;2023-11-19T08:01:40;101822.63;;;17.14;76.09
61026;BME280;46911;32.650;-16.902;2023-11-19T08:03:41;101828.88;;;17.15;75.92
61026;BME280;46911;32.650;-16.902;2023-11-19T08:05:46;101826.06;;;17.16;75.56
61026;BME280;46911;32.650;-16.902;2023-11-19T08:07:47;101834.03;;;17.18;75.55
61026;BME280;46911;32.650;-16.902;2023-11-19T08:09:48;101829.88;;;17.25;75.43
61026;BME280;46911;32.650;-16.902;2023-11-19T08:11:49;101814.69;;;17.24;75.15
61026;BME280;46911;32.650;-16.902;2023-11-19T08:13:50;101828.03;;;17.37;74.81
61026;BME280;46911;32.650;-16.902;2023-11-19T08:15:53;101814.69;;;17.35;74.73
61026;BME280;46911;32.650;-16.902;2023-11-19T08:17:57;101829.91;;;17.48;74.19
61026;BME280;46911;32.650;-16.902;2023-11-19T08:19:58;101828.78;;;17.50;74.14
61026;BME280;46911;32.650;-16.902;2023-11-19T08:22:01;101831.38;;;17.52;74.08
61026;BME280;46911;32.650;-16.902;2023-11-19T08:24:09;101831.97;;;17.55;73.96
61026;BME280;46911;32.650;-16.902;2023-11-19T08:26:14;101809.03;;;17.50;73.69
61026;BME280;46911;32.650;-16.902;2023-11-19T08:28:15;101831.72;;;17.70;73.37
61026;BME280;46911;32.650;-16.902;2023-11-19T08:30:22;101835.75;;;17.76;73.22
61026;BME280;46911;32.650;-16.902;2023-11-19T08:32:26;101817.00;;;17.74;72.92
61026;BME280;46911;32.650;-16.902;2023-11-19T08:34:29;101836.03;;;17.84;72.75
61026;BME280;46911;32.650;-16.902;2023-11-19T08:36:31;101831.34;;;17.86;72.80
61026;BME280;46911;32.650;-16.902;2023-11-19T08:38:32;101818.59;;;17.88;72.57
61026;BME280;46911;32.650;-16.902;2023-11-19T08:40:33;101832.84;;;18.01;72.23
61026;BME280;46911;32.650;-16.902;2023-11-19T08:42:34;101835.00;;;18.07;71.82
61026;BME280;46911;32.650;-16.902;2023-11-19T08:44:34;101823.09;;;18.10;71.45
61026;BME280;46911;32.650;-16.902;2023-11-19T08:46:38;101830.44;;;18.19;71.38
61026;BME280;46911;32.650;-16.902;2023-11-19T08:48:42;101835.81;;;18.31;70.96
61026;BME280;46911;32.650;-16.902;2023-11-19T08:50:46;101829.56;;;18.30;71.14
61026;BME280;46911;32.650;-16.902;2023-11-19T08:52:47;101833.47;;;18.37;71.19
61026;BME280;46911;32.650;-16.902;2023-11-19T08:54:48;101832.81;;;18.45;70.84
61026;BME280;46911;32.650;-16.902;2023-11-19T08:56:49;101834.28;;;18.49;70.60
61026;BME280;46911;32.650;-16.902;2023-11-19T08:58:54;101839.03;;;18.57;70.37
61026;BME280;46911;32.650;-16.902;2023-11-19T09:00:58;101828.47;;;18.54;70.38
61026;BME280;46911;32.650;-16.902;2023-11-19T09:02:59;101840.72;;;18.69;70.17
61026;BME280;46911;32.650;-16.902;2023-11-19T09:05:00;101839.69;;;18.70;69.87
61026;BME280;46911;32.650;-16.902;2023-11-19T09:07:04;101840.66;;;18.81;69.91
61026;BME280;46911;32.650;-16.902;2023-11-19T09:09:05;101833.97;;;18.85;69.83
61026;BME280;46911;32.650;-16.902;2023-11-19T09:11:09;101848.34;;;18.97;69.37
61026;BME280;46911;32.650;-16.902;2023-11-19T09:13:12;101841.66;;;19.01;69.05
61026;BME280;46911;32.650;-16.902;2023-11-19T09:15:18;101866.53;;;19.16;68.88
61026;BME280;46911;32.650;-16.902;2023-11-19T09:17:26;101856.63;;;19.26;68.68
61026;BME280;46911;32.650;-16.902;2023-11-19T09:19:32;101847.13;;;19.32;68.48
61026;BME280;46911;32.650;-16.902;2023-11-19T09:21:33;101854.59;;;19.49;68.08
61026;BME280;46911;32.650;-16.902;2023-11-19T09:23:37;101860.66;;;19.63;67.64
61026;BME280;46911;32.650;-16.902;2023-11-19T09:25:42;101864.56;;;19.80;67.19
61026;BME280;46911;32.650;-16.902;2023-11-19T09:27:44;101849.97;;;19.92;66.96
61026;BME280;46911;32.650;-16.902;2023-11-19T09:29:47;101864.84;;;20.17;66.08
61026;BME280;46911;32.650;-16.902;2023-11-19T09:31:53;101858.75;;;20.35;65.65
61026;BME280;46911;32.650;-16.902;2023-11-19T09:33:54;101856.50;;;20.50;65.03
61026;BME280;46911;32.650;-16.902;2023-11-19T09:36:00;101865.81;;;20.77;64.15
61026;BME280;46911;32.650;-16.902;2023-11-19T09:38:04;101868.22;;;20.99;63.81
61026;BME280;46911;32.650;-16.902;2023-11-19T09:40:06;101859.53;;;21.43;62.98
61026;BME280;46911;32.650;-16.902;2023-11-19T09:42:11;101870.19;;;22.48;60.06
61026;BME280;46911;32.650;-16.902;2023-11-19T09:44:12;101871.47;;;23.77;56.53
61026;BME280;46911;32.650;-16.902;2023-11-19T09:46:17;101869.22;;;25.07;54.00
61026;BME280;46911;32.650;-16.902;2023-11-19T09:48:20;101865.66;;;26.11;51.16
61026;BME280;46911;32.650;-16.902;2023-11-19T09:50:21;101866.53;;;26.89;49.02
61026;BME280;46911;32.650;-16.902;2023-11-19T09:52:24;101877.94;;;27.90;46.13
61026;BME280;46911;32.650;-16.902;2023-11-19T09:54:27;101860.94;;;28.97;43.25
61026;BME280;46911;32.650;-16.902;2023-11-19T09:56:29;101880.16;;;29.88;41.05
61026;BME280;46911;32.650;-16.902;2023-11-19T09:58:33;101869.34;;;30.49;39.40
61026;BME280;46911;32.650;-16.902;2023-11-19T10:00:36;101870.03;;;31.25;38.84
61026;BME280;46911;32.650;-16.902;2023-11-19T10:02:41;101871.94;;;31.96;37.42
61026;BME280;46911;32.650;-16.902;2023-11-19T10:04:46;101864.38;;;32.30;35.32
61026;BME280;46911;32.650;-16.902;2023-11-19T10:06:51;101865.75;;;32.08;35.81
61026;BME280;46911;32.650;-16.902;2023-11-19T10:08:52;101868.91;;;31.59;36.90
61026;BME280;46911;32.650;-16.902;2023-11-19T10:10:53;101869.84;;;31.06;37.75
61026;BME280;46911;32.650;-16.902;2023-11-19T10:12:54;101874.66;;;31.31;38.00
61026;BME280;46911;32.650;-16.902;2023-11-19T10:14:57;101871.78;;;31.91;36.68
61026;BME280;46911;32.650;-16.902;2023-11-19T10:17:01;101878.00;;;32.57;36.42
61026;BME280;46911;32.650;-16.902;2023-11-19T10:19:06;101854.75;;;32.40;35.31
61026;BME280;46911;32.650;-16.902;2023-11-19T10:21:12;101866.78;;;31.61;36.80
61026;BME280;46911;32.650;-16.902;2023-11-19T10:23:20;101868.78;;;29.98;39.98
61026;BME280;46911;32.650;-16.902;2023-11-19T10:25:27;101871.72;;;28.55;43.53
61026;BME280;46911;32.650;-16.902;2023-11-19T10:27:30;101868.19;;;29.04;42.74